Indian Valley, Idaho
Current Conditions -  °F | °C
As of 9:51 AM on Friday 24 Oct 2014 (Local Time) from KMYL Reporting Station
Light Rain Light Rain  
Wind Chill: 42°   Ceiling: 4800
Heat Index: 42°   Visibility: 10mi
Dew Point: 40°   Wind: 3mph
Humidity: 92%   Direction: 30°NNE
Pressure: 30.12"   Gusts: NA
Location:  44.57°N, 116.45°W
Report Text: KMYL 241551Z AUTO 03003KT 10SM -RA FEW028 BKN048 OVC080 06/04 A3012 RMK AO2 SLP201 P0003 T00560044
Loading
Personal Weather Stations






























Interactive Weather Map
Tropical Storm Tracking
New forecast layout! Learn more

10-Day Weather Forecast

Advertisements
Track Severe Weather on mobile